sensor_id;sensor_type;location;lat;lon;timestamp;P1;durP1;ratioP1;P2;durP2;ratioP2
16113;SDS011;8161;-33.910;151.156;2023-05-10T00:00:03;3.72;;;1.30;;
16113;SDS011;8161;-33.910;151.156;2023-05-10T00:02:32;2.38;;;1.20;;
16113;SDS011;8161;-33.910;151.156;2023-05-10T00:05:01;4.70;;;1.20;;
16113;SDS011;8161;-33.910;151.156;2023-05-10T00:07:28;2.23;;;0.83;;
16113;SDS011;8161;-33.910;151.156;2023-05-10T00:09:58;3.88;;;0.88;;
16113;SDS011;8161;-33.910;151.156;2023-05-10T00:12:25;1.60;;;0.90;;
16113;SDS011;8161;-33.910;151.156;2023-05-10T00:14:53;2.22;;;1.10;;
16113;SDS011;8161;-33.910;151.156;2023-05-10T00:17:23;1.40;;;0.80;;
16113;SDS011;8161;-33.910;151.156;2023-05-10T00:19:53;1.70;;;0.90;;
16113;SDS011;8161;-33.910;151.156;2023-05-10T00:22:21;2.43;;;1.30;;
16113;SDS011;8161;-33.910;151.156;2023-05-10T00:24:48;4.57;;;1.15;;
16113;SDS011;8161;-33.910;151.156;2023-05-10T00:27:15;3.47;;;1.95;;
16113;SDS011;8161;-33.910;151.156;2023-05-10T00:29:43;6.13;;;1.30;;
16113;SDS011;8161;-33.910;151.156;2023-05-10T00:32:10;2.83;;;1.00;;
16113;SDS011;8161;-33.910;151.156;2023-05-10T00:34:39;2.10;;;0.80;;
16113;SDS011;8161;-33.910;151.156;2023-05-10T00:37:06;6.13;;;1.00;;
16113;SDS011;8161;-33.910;151.156;2023-05-10T00:39:33;3.55;;;0.88;;
16113;SDS011;8161;-33.910;151.156;2023-05-10T00:42:00;4.65;;;0.90;;
16113;SDS011;8161;-33.910;151.156;2023-05-10T00:44:28;6.65;;;1.20;;
16113;SDS011;8161;-33.910;151.156;2023-05-10T00:46:56;8.80;;;1.35;;
16113;SDS011;8161;-33.910;151.156;2023-05-10T00:49:24;3.72;;;1.00;;
16113;SDS011;8161;-33.910;151.156;2023-05-10T00:51:51;2.83;;;0.80;;
16113;SDS011;8161;-33.910;151.156;2023-05-10T00:54:18;3.30;;;0.90;;
16113;SDS011;8161;-33.910;151.156;2023-05-10T00:56:46;5.65;;;0.98;;
16113;SDS011;8161;-33.910;151.156;2023-05-10T00:59:15;3.23;;;1.30;;
16113;SDS011;8161;-33.910;151.156;2023-05-10T01:01:46;3.20;;;1.20;;
16113;SDS011;8161;-33.910;151.156;2023-05-10T01:04:13;2.47;;;0.80;;
16113;SDS011;8161;-33.910;151.156;2023-05-10T01:06:42;3.47;;;1.30;;
16113;SDS011;8161;-33.910;151.156;2023-05-10T01:09:09;3.60;;;1.27;;
16113;SDS011;8161;-33.910;151.156;2023-05-10T01:11:38;3.58;;;1.15;;
16113;SDS011;8161;-33.910;151.156;2023-05-10T01:14:05;4.20;;;1.00;;
16113;SDS011;8161;-33.910;151.156;2023-05-10T01:16:35;7.30;;;1.17;;
16113;SDS011;8161;-33.910;151.156;2023-05-10T01:19:06;2.53;;;0.82;;
16113;SDS011;8161;-33.910;151.156;2023-05-10T01:21:48;4.53;;;1.10;;
16113;SDS011;8161;-33.910;151.156;2023-05-10T01:33:28;4.63;;;1.00;;
16113;SDS011;8161;-33.910;151.156;2023-05-10T01:39:06;3.88;;;1.70;;
16113;SDS011;8161;-33.910;151.156;2023-05-10T01:41:51;5.18;;;1.30;;
16113;SDS011;8161;-33.910;151.156;2023-05-10T01:47:27;3.10;;;1.00;;
16113;SDS011;8161;-33.910;151.156;2023-05-10T01:49:55;3.97;;;1.00;;
16113;SDS011;8161;-33.910;151.156;2023-05-10T01:52:25;3.80;;;1.38;;
16113;SDS011;8161;-33.910;151.156;2023-05-10T01:55:00;2.63;;;1.38;;
16113;SDS011;8161;-33.910;151.156;2023-05-10T01:57:34;2.75;;;0.85;;
16113;SDS011;8161;-33.910;151.156;2023-05-10T02:00:05;3.97;;;0.93;;
16113;SDS011;8161;-33.910;151.156;2023-05-10T02:02:40;4.25;;;1.60;;
16113;SDS011;8161;-33.910;151.156;2023-05-10T02:05:12;3.72;;;1.15;;
16113;SDS011;8161;-33.910;151.156;2023-05-10T02:07:41;5.22;;;1.02;;
16113;SDS011;8161;-33.910;151.156;2023-05-10T02:10:09;4.10;;;0.77;;
16113;SDS011;8161;-33.910;151.156;2023-05-10T02:12:40;1.75;;;0.90;;
16113;SDS011;8161;-33.910;151.156;2023-05-10T02:15:10;3.70;;;0.90;;
16113;SDS011;8161;-33.910;151.156;2023-05-10T02:17:40;3.10;;;1.08;;
16113;SDS011;8161;-33.910;151.156;2023-05-10T02:20:09;4.82;;;1.30;;
16113;SDS011;8161;-33.910;151.156;2023-05-10T02:22:37;3.58;;;0.95;;
16113;SDS011;8161;-33.910;151.156;2023-05-10T02:25:05;3.58;;;0.90;;
16113;SDS011;8161;-33.910;151.156;2023-05-10T02:27:34;3.35;;;0.90;;
16113;SDS011;8161;-33.910;151.156;2023-05-10T02:30:02;2.95;;;0.80;;
16113;SDS011;8161;-33.910;151.156;2023-05-10T02:32:31;4.07;;;1.02;;
16113;SDS011;8161;-33.910;151.156;2023-05-10T02:34:59;3.17;;;0.87;;
16113;SDS011;8161;-33.910;151.156;2023-05-10T02:37:27;3.35;;;0.85;;
16113;SDS011;8161;-33.910;151.156;2023-05-10T02:39:55;3.40;;;0.98;;
16113;SDS011;8161;-33.910;151.156;2023-05-10T02:42:26;3.67;;;1.00;;
16113;SDS011;8161;-33.910;151.156;2023-05-10T02:44:56;4.80;;;1.23;;
16113;SDS011;8161;-33.910;151.156;2023-05-10T02:47:27;6.60;;;1.40;;
16113;SDS011;8161;-33.910;151.156;2023-05-10T02:49:57;3.30;;;1.00;;
16113;SDS011;8161;-33.910;151.156;2023-05-10T02:52:27;4.07;;;1.38;;
16113;SDS011;8161;-33.910;151.156;2023-05-10T02:55:00;3.33;;;1.15;;
16113;SDS011;8161;-33.910;151.156;2023-05-10T02:57:31;5.13;;;1.27;;
16113;SDS011;8161;-33.910;151.156;2023-05-10T03:00:00;3.58;;;0.95;;
16113;SDS011;8161;-33.910;151.156;2023-05-10T03:02:28;5.55;;;2.13;;
16113;SDS011;8161;-33.910;151.156;2023-05-10T03:04:56;3.38;;;1.60;;
16113;SDS011;8161;-33.910;151.156;2023-05-10T03:07:23;5.18;;;1.27;;
16113;SDS011;8161;-33.910;151.156;2023-05-10T03:09:52;3.13;;;1.43;;
16113;SDS011;8161;-33.910;151.156;2023-05-10T03:12:45;2.57;;;1.13;;
16113;SDS011;8161;-33.910;151.156;2023-05-10T03:15:17;3.83;;;1.10;;
16113;SDS011;8161;-33.910;151.156;2023-05-10T03:20:16;4.93;;;1.20;;
16113;SDS011;8161;-33.910;151.156;2023-05-10T03:23:04;4.78;;;1.10;;
16113;SDS011;8161;-33.910;151.156;2023-05-10T03:25:51;5.03;;;0.85;;
16113;SDS011;8161;-33.910;151.156;2023-05-10T03:28:20;6.15;;;1.20;;
16113;SDS011;8161;-33.910;151.156;2023-05-10T03:30:50;4.27;;;1.07;;
16113;SDS011;8161;-33.910;151.156;2023-05-10T03:33:19;5.40;;;1.35;;
16113;SDS011;8161;-33.910;151.156;2023-05-10T03:35:47;6.00;;;1.58;;
16113;SDS011;8161;-33.910;151.156;2023-05-10T03:38:14;5.68;;;1.23;;
16113;SDS011;8161;-33.910;151.156;2023-05-10T03:40:41;7.30;;;1.40;;
16113;SDS011;8161;-33.910;151.156;2023-05-10T03:43:08;3.95;;;1.20;;
16113;SDS011;8161;-33.910;151.156;2023-05-10T03:45:35;8.10;;;1.60;;
16113;SDS011;8161;-33.910;151.156;2023-05-10T03:48:03;5.28;;;1.13;;
16113;SDS011;8161;-33.910;151.156;2023-05-10T03:50:30;4.35;;;1.00;;
16113;SDS011;8161;-33.910;151.156;2023-05-10T03:52:57;4.65;;;1.10;;
16113;SDS011;8161;-33.910;151.156;2023-05-10T03:55:25;8.15;;;1.65;;
16113;SDS011;8161;-33.910;151.156;2023-05-10T03:57:52;4.95;;;1.15;;
16113;SDS011;8161;-33.910;151.156;2023-05-10T04:00:19;5.78;;;1.10;;
16113;SDS011;8161;-33.910;151.156;2023-05-10T04:02:47;5.70;;;1.10;;
16113;SDS011;8161;-33.910;151.156;2023-05-10T04:05:14;4.53;;;1.50;;
16113;SDS011;8161;-33.910;151.156;2023-05-10T04:07:41;7.47;;;1.40;;
16113;SDS011;8161;-33.910;151.156;2023-05-10T04:10:10;4.30;;;1.60;;
16113;SDS011;8161;-33.910;151.156;2023-05-10T04:12:37;4.55;;;1.45;;
16113;SDS011;8161;-33.910;151.156;2023-05-10T04:15:04;4.23;;;1.27;;
16113;SDS011;8161;-33.910;151.156;2023-05-10T04:17:32;4.32;;;1.10;;
16113;SDS011;8161;-33.910;151.156;2023-05-10T04:20:02;4.78;;;1.40;;
16113;SDS011;8161;-33.910;151.156;2023-05-10T04:22:30;5.68;;;1.30;;
16113;SDS011;8161;-33.910;151.156;2023-05-10T04:24:58;5.85;;;1.30;;
16113;SDS011;8161;-33.910;151.156;2023-05-10T04:27:26;7.55;;;1.40;;
16113;SDS011;8161;-33.910;151.156;2023-05-10T04:29:53;8.07;;;1.55;;
16113;SDS011;8161;-33.910;151.156;2023-05-10T04:32:20;5.03;;;1.40;;
16113;SDS011;8161;-33.910;151.156;2023-05-10T04:34:47;5.97;;;1.38;;
16113;SDS011;8161;-33.910;151.156;2023-05-10T04:37:16;4.68;;;1.25;;
16113;SDS011;8161;-33.910;151.156;2023-05-10T04:39:43;5.88;;;1.45;;
16113;SDS011;8161;-33.910;151.156;2023-05-10T04:42:10;6.88;;;1.30;;
16113;SDS011;8161;-33.910;151.156;2023-05-10T04:44:40;4.88;;;1.20;;
16113;SDS011;8161;-33.910;151.156;2023-05-10T04:47:08;6.22;;;1.35;;
16113;SDS011;8161;-33.910;151.156;2023-05-10T04:49:35;6.10;;;1.67;;
16113;SDS011;8161;-33.910;151.156;2023-05-10T04:52:02;4.78;;;1.30;;
16113;SDS011;8161;-33.910;151.156;2023-05-10T04:54:29;4.72;;;1.60;;
16113;SDS011;8161;-33.910;151.156;2023-05-10T04:56:56;4.57;;;1.45;;
16113;SDS011;8161;-33.910;151.156;2023-05-10T04:59:23;6.23;;;1.73;;
16113;SDS011;8161;-33.910;151.156;2023-05-10T05:01:51;4.80;;;1.20;;
16113;SDS011;8161;-33.910;151.156;2023-05-10T05:04:18;2.97;;;1.20;;
16113;SDS011;8161;-33.910;151.156;2023-05-10T05:06:45;3.35;;;1.05;;
16113;SDS011;8161;-33.910;151.156;2023-05-10T05:09:12;5.80;;;1.03;;
16113;SDS011;8161;-33.910;151.156;2023-05-10T05:11:39;5.25;;;1.17;;
16113;SDS011;8161;-33.910;151.156;2023-05-10T05:14:07;5.03;;;1.17;;
16113;SDS011;8161;-33.910;151.156;2023-05-10T05:16:34;2.40;;;1.03;;
16113;SDS011;8161;-33.910;151.156;2023-05-10T05:19:01;4.32;;;1.48;;
16113;SDS011;8161;-33.910;151.156;2023-05-10T05:21:29;3.20;;;0.93;;
16113;SDS011;8161;-33.910;151.156;2023-05-10T05:23:57;3.40;;;0.90;;
16113;SDS011;8161;-33.910;151.156;2023-05-10T05:26:25;2.92;;;1.00;;
16113;SDS011;8161;-33.910;151.156;2023-05-10T05:28:53;8.23;;;1.30;;
16113;SDS011;8161;-33.910;151.156;2023-05-10T05:31:20;4.10;;;1.00;;
16113;SDS011;8161;-33.910;151.156;2023-05-10T05:33:47;4.55;;;1.20;;
16113;SDS011;8161;-33.910;151.156;2023-05-10T05:36:15;5.88;;;1.30;;
16113;SDS011;8161;-33.910;151.156;2023-05-10T05:38:42;5.27;;;1.20;;
16113;SDS011;8161;-33.910;151.156;2023-05-10T05:41:09;3.63;;;1.30;;
16113;SDS011;8161;-33.910;151.156;2023-05-10T05:43:36;3.08;;;1.40;;
16113;SDS011;8161;-33.910;151.156;2023-05-10T05:46:03;3.25;;;1.20;;
16113;SDS011;8161;-33.910;151.156;2023-05-10T05:48:30;2.67;;;0.90;;
16113;SDS011;8161;-33.910;151.156;2023-05-10T05:50:58;3.15;;;1.13;;
16113;SDS011;8161;-33.910;151.156;2023-05-10T05:53:25;3.80;;;1.20;;
16113;SDS011;8161;-33.910;151.156;2023-05-10T05:55:56;5.47;;;1.20;;
16113;SDS011;8161;-33.910;151.156;2023-05-10T05:58:24;5.23;;;1.60;;
16113;SDS011;8161;-33.910;151.156;2023-05-10T06:00:52;4.28;;;1.27;;
16113;SDS011;8161;-33.910;151.156;2023-05-10T06:03:19;5.38;;;1.40;;
16113;SDS011;8161;-33.910;151.156;2023-05-10T06:05:47;6.93;;;1.17;;
16113;SDS011;8161;-33.910;151.156;2023-05-10T06:08:14;5.22;;;1.27;;
16113;SDS011;8161;-33.910;151.156;2023-05-10T06:10:41;7.25;;;1.50;;
16113;SDS011;8161;-33.910;151.156;2023-05-10T06:13:09;6.35;;;1.40;;
16113;SDS011;8161;-33.910;151.156;2023-05-10T06:15:37;5.07;;;1.40;;
16113;SDS011;8161;-33.910;151.156;2023-05-10T06:18:04;4.45;;;1.35;;
16113;SDS011;8161;-33.910;151.156;2023-05-10T06:20:31;6.32;;;1.88;;
16113;SDS011;8161;-33.910;151.156;2023-05-10T06:22:59;5.07;;;1.40;;
16113;SDS011;8161;-33.910;151.156;2023-05-10T06:25:26;6.37;;;1.07;;
16113;SDS011;8161;-33.910;151.156;2023-05-10T06:27:53;4.13;;;1.20;;
16113;SDS011;8161;-33.910;151.156;2023-05-10T06:30:23;4.27;;;1.13;;
16113;SDS011;8161;-33.910;151.156;2023-05-10T06:32:54;5.60;;;1.50;;
16113;SDS011;8161;-33.910;151.156;2023-05-10T06:35:21;5.05;;;1.45;;
16113;SDS011;8161;-33.910;151.156;2023-05-10T06:37:48;2.60;;;1.13;;
16113;SDS011;8161;-33.910;151.156;2023-05-10T06:40:16;4.47;;;1.38;;
16113;SDS011;8161;-33.910;151.156;2023-05-10T06:42:45;4.40;;;1.30;;
16113;SDS011;8161;-33.910;151.156;2023-05-10T06:45:13;5.68;;;1.35;;
16113;SDS011;8161;-33.910;151.156;2023-05-10T06:47:40;4.32;;;1.55;;
16113;SDS011;8161;-33.910;151.156;2023-05-10T06:50:08;4.55;;;1.60;;
16113;SDS011;8161;-33.910;151.156;2023-05-10T06:52:39;4.28;;;1.50;;
16113;SDS011;8161;-33.910;151.156;2023-05-10T06:55:06;5.95;;;1.90;;
16113;SDS011;8161;-33.910;151.156;2023-05-10T06:57:34;4.50;;;1.40;;
16113;SDS011;8161;-33.910;151.156;2023-05-10T07:00:02;5.68;;;1.30;;
16113;SDS011;8161;-33.910;151.156;2023-05-10T07:02:30;7.20;;;1.90;;
16113;SDS011;8161;-33.910;151.156;2023-05-10T07:04:57;7.60;;;1.37;;
16113;SDS011;8161;-33.910;151.156;2023-05-10T07:07:24;8.40;;;1.20;;
16113;SDS011;8161;-33.910;151.156;2023-05-10T07:09:52;5.03;;;1.58;;
16113;SDS011;8161;-33.910;151.156;2023-05-10T07:12:19;5.15;;;1.70;;
16113;SDS011;8161;-33.910;151.156;2023-05-10T07:14:46;3.75;;;1.50;;
16113;SDS011;8161;-33.910;151.156;2023-05-10T07:17:13;8.68;;;2.30;;
16113;SDS011;8161;-33.910;151.156;2023-05-10T07:19:41;7.78;;;2.10;;
16113;SDS011;8161;-33.910;151.156;2023-05-10T07:22:08;7.38;;;3.20;;
16113;SDS011;8161;-33.910;151.156;2023-05-10T07:24:36;10.35;;;3.15;;
16113;SDS011;8161;-33.910;151.156;2023-05-10T07:27:03;7.85;;;2.58;;
16113;SDS011;8161;-33.910;151.156;2023-05-10T07:29:30;6.47;;;2.20;;
16113;SDS011;8161;-33.910;151.156;2023-05-10T07:31:57;6.53;;;2.20;;
16113;SDS011;8161;-33.910;151.156;2023-05-10T07:34:25;7.38;;;2.00;;
16113;SDS011;8161;-33.910;151.156;2023-05-10T07:36:53;9.02;;;2.67;;
16113;SDS011;8161;-33.910;151.156;2023-05-10T07:39:20;7.93;;;2.50;;
16113;SDS011;8161;-33.910;151.156;2023-05-10T07:41:48;8.10;;;2.90;;
16113;SDS011;8161;-33.910;151.156;2023-05-10T07:44:15;8.65;;;2.40;;
16113;SDS011;8161;-33.910;151.156;2023-05-10T07:46:46;7.50;;;2.70;;
16113;SDS011;8161;-33.910;151.156;2023-05-10T07:49:16;7.95;;;2.30;;
16113;SDS011;8161;-33.910;151.156;2023-05-10T07:51:46;8.02;;;2.28;;
16113;SDS011;8161;-33.910;151.156;2023-05-10T07:54:14;9.57;;;2.28;;
16113;SDS011;8161;-33.910;151.156;2023-05-10T07:56:41;7.78;;;2.72;;
16113;SDS011;8161;-33.910;151.156;2023-05-10T07:59:17;8.30;;;2.80;;
16113;SDS011;8161;-33.910;151.156;2023-05-10T08:01:44;8.65;;;2.65;;
16113;SDS011;8161;-33.910;151.156;2023-05-10T08:04:11;10.57;;;3.20;;
16113;SDS011;8161;-33.910;151.156;2023-05-10T08:06:39;7.65;;;2.83;;
16113;SDS011;8161;-33.910;151.156;2023-05-10T08:09:06;8.65;;;3.17;;
16113;SDS011;8161;-33.910;151.156;2023-05-10T08:11:34;7.68;;;2.63;;
16113;SDS011;8161;-33.910;151.156;2023-05-10T08:14:01;10.70;;;3.67;;
16113;SDS011;8161;-33.910;151.156;2023-05-10T08:16:28;10.35;;;4.65;;
16113;SDS011;8161;-33.910;151.156;2023-05-10T08:18:55;9.00;;;3.40;;
16113;SDS011;8161;-33.910;151.156;2023-05-10T08:21:23;5.88;;;2.60;;
16113;SDS011;8161;-33.910;151.156;2023-05-10T08:23:51;7.13;;;2.90;;
16113;SDS011;8161;-33.910;151.156;2023-05-10T08:26:19;10.35;;;3.90;;
16113;SDS011;8161;-33.910;151.156;2023-05-10T08:28:47;9.30;;;3.47;;
16113;SDS011;8161;-33.910;151.156;2023-05-10T08:31:14;10.10;;;4.00;;
16113;SDS011;8161;-33.910;151.156;2023-05-10T08:33:44;7.18;;;3.30;;
16113;SDS011;8161;-33.910;151.156;2023-05-10T08:36:12;10.20;;;4.10;;
16113;SDS011;8161;-33.910;151.156;2023-05-10T08:38:45;9.30;;;3.57;;
16113;SDS011;8161;-33.910;151.156;2023-05-10T08:41:12;10.10;;;3.30;;
16113;SDS011;8161;-33.910;151.156;2023-05-10T08:43:40;8.43;;;3.00;;
16113;SDS011;8161;-33.910;151.156;2023-05-10T08:46:12;11.02;;;3.58;;
16113;SDS011;8161;-33.910;151.156;2023-05-10T08:48:46;12.03;;;3.37;;
16113;SDS011;8161;-33.910;151.156;2023-05-10T08:51:18;8.80;;;2.83;;
16113;SDS011;8161;-33.910;151.156;2023-05-10T08:53:50;6.38;;;2.60;;
16113;SDS011;8161;-33.910;151.156;2023-05-10T08:56:18;11.03;;;2.90;;
16113;SDS011;8161;-33.910;151.156;2023-05-10T08:58:46;8.98;;;3.45;;
16113;SDS011;8161;-33.910;151.156;2023-05-10T09:01:15;13.13;;;4.67;;
16113;SDS011;8161;-33.910;151.156;2023-05-10T09:03:45;14.38;;;4.78;;
16113;SDS011;8161;-33.910;151.156;2023-05-10T09:06:13;13.50;;;4.50;;
16113;SDS011;8161;-33.910;151.156;2023-05-10T09:08:44;9.45;;;4.38;;
16113;SDS011;8161;-33.910;151.156;2023-05-10T09:11:11;8.60;;;4.07;;
16113;SDS011;8161;-33.910;151.156;2023-05-10T09:13:39;9.83;;;4.07;;
16113;SDS011;8161;-33.910;151.156;2023-05-10T09:16:07;13.10;;;4.70;;
16113;SDS011;8161;-33.910;151.156;2023-05-10T09:18:35;12.90;;;4.82;;
16113;SDS011;8161;-33.910;151.156;2023-05-10T09:21:02;11.82;;;5.10;;
16113;SDS011;8161;-33.910;151.156;2023-05-10T09:23:29;11.05;;;5.05;;
16113;SDS011;8161;-33.910;151.156;2023-05-10T09:26:04;10.80;;;4.65;;
16113;SDS011;8161;-33.910;151.156;2023-05-10T09:28:32;12.07;;;4.55;;
16113;SDS011;8161;-33.910;151.156;2023-05-10T09:31:00;11.00;;;5.20;;
16113;SDS011;8161;-33.910;151.156;2023-05-10T09:33:27;9.80;;;4.53;;
16113;SDS011;8161;-33.910;151.156;2023-05-10T09:35:55;12.98;;;6.10;;
16113;SDS011;8161;-33.910;151.156;2023-05-10T09:38:22;15.55;;;6.03;;
16113;SDS011;8161;-33.910;151.156;2023-05-10T09:40:52;11.37;;;5.07;;
16113;SDS011;8161;-33.910;151.156;2023-05-10T09:43:20;13.00;;;4.50;;
16113;SDS011;8161;-33.910;151.156;2023-05-10T09:45:48;8.85;;;3.75;;
16113;SDS011;8161;-33.910;151.156;2023-05-10T09:48:15;8.82;;;3.30;;
16113;SDS011;8161;-33.910;151.156;2023-05-10T09:50:43;11.52;;;3.30;;
16113;SDS011;8161;-33.910;151.156;2023-05-10T09:53:10;9.15;;;3.15;;
16113;SDS011;8161;-33.910;151.156;2023-05-10T09:55:43;10.47;;;4.13;;
16113;SDS011;8161;-33.910;151.156;2023-05-10T09:58:12;11.00;;;4.50;;
16113;SDS011;8161;-33.910;151.156;2023-05-10T10:00:41;11.18;;;4.25;;
16113;SDS011;8161;-33.910;151.156;2023-05-10T10:03:13;8.13;;;3.63;;
16113;SDS011;8161;-33.910;151.156;2023-05-10T10:05:42;10.80;;;4.78;;
16113;SDS011;8161;-33.910;151.156;2023-05-10T10:08:09;15.70;;;6.40;;
16113;SDS011;8161;-33.910;151.156;2023-05-10T10:10:37;16.15;;;6.95;;
16113;SDS011;8161;-33.910;151.156;2023-05-10T10:13:12;16.58;;;8.70;;
16113;SDS011;8161;-33.910;151.156;2023-05-10T10:15:42;19.90;;;8.35;;
16113;SDS011;8161;-33.910;151.156;2023-05-10T10:18:14;15.20;;;7.53;;
16113;SDS011;8161;-33.910;151.156;2023-05-10T10:20:42;13.55;;;4.78;;
16113;SDS011;8161;-33.910;151.156;2023-05-10T10:23:09;11.98;;;5.15;;
16113;SDS011;8161;-33.910;151.156;2023-05-10T10:25:37;9.20;;;4.70;;
16113;SDS011;8161;-33.910;151.156;2023-05-10T10:28:11;11.10;;;4.50;;
16113;SDS011;8161;-33.910;151.156;2023-05-10T10:30:48;10.95;;;5.20;;
16113;SDS011;8161;-33.910;151.156;2023-05-10T10:36:00;12.43;;;4.47;;
16113;SDS011;8161;-33.910;151.156;2023-05-10T10:38:36;10.13;;;4.35;;
16113;SDS011;8161;-33.910;151.156;2023-05-10T10:49:26;10.35;;;4.60;;
16113;SDS011;8161;-33.910;151.156;2023-05-10T10:54:50;8.85;;;4.43;;
16113;SDS011;8161;-33.910;151.156;2023-05-10T10:57:18;9.25;;;4.78;;
16113;SDS011;8161;-33.910;151.156;2023-05-10T10:59:47;11.68;;;4.85;;
16113;SDS011;8161;-33.910;151.156;2023-05-10T11:04:59;10.73;;;4.35;;
16113;SDS011;8161;-33.910;151.156;2023-05-10T11:07:56;10.45;;;4.30;;
16113;SDS011;8161;-33.910;151.156;2023-05-10T11:10:25;9.93;;;4.40;;
16113;SDS011;8161;-33.910;151.156;2023-05-10T11:13:00;10.07;;;4.35;;
16113;SDS011;8161;-33.910;151.156;2023-05-10T11:15:36;9.57;;;4.05;;
16113;SDS011;8161;-33.910;151.156;2023-05-10T11:20:49;12.43;;;4.07;;
16113;SDS011;8161;-33.910;151.156;2023-05-10T11:23:32;13.07;;;4.40;;
16113;SDS011;8161;-33.910;151.156;2023-05-10T11:26:30;9.80;;;4.10;;
16113;SDS011;8161;-33.910;151.156;2023-05-10T11:28:58;12.57;;;4.30;;
16113;SDS011;8161;-33.910;151.156;2023-05-10T11:31:27;15.60;;;4.10;;
16113;SDS011;8161;-33.910;151.156;2023-05-10T11:33:55;10.93;;;4.32;;
16113;SDS011;8161;-33.910;151.156;2023-05-10T11:36:25;9.50;;;4.05;;
16113;SDS011;8161;-33.910;151.156;2023-05-10T11:38:54;11.02;;;4.07;;
16113;SDS011;8161;-33.910;151.156;2023-05-10T11:41:22;13.02;;;4.40;;
16113;SDS011;8161;-33.910;151.156;2023-05-10T11:43:51;11.07;;;4.75;;
16113;SDS011;8161;-33.910;151.156;2023-05-10T11:46:21;10.07;;;4.82;;
16113;SDS011;8161;-33.910;151.156;2023-05-10T11:48:57;14.88;;;5.45;;
16113;SDS011;8161;-33.910;151.156;2023-05-10T11:51:32;11.98;;;5.07;;
16113;SDS011;8161;-33.910;151.156;2023-05-10T11:54:08;13.93;;;4.82;;
16113;SDS011;8161;-33.910;151.156;2023-05-10T11:56:37;12.63;;;5.10;;
16113;SDS011;8161;-33.910;151.156;2023-05-10T11:59:05;10.95;;;4.60;;
16113;SDS011;8161;-33.910;151.156;2023-05-10T12:01:33;11.15;;;4.60;;
16113;SDS011;8161;-33.910;151.156;2023-05-10T12:04:01;17.75;;;5.63;;
16113;SDS011;8161;-33.910;151.156;2023-05-10T12:06:29;10.45;;;4.90;;
16113;SDS011;8161;-33.910;151.156;2023-05-10T12:09:01;13.07;;;5.53;;
16113;SDS011;8161;-33.910;151.156;2023-05-10T12:11:36;13.65;;;5.43;;
16113;SDS011;8161;-33.910;151.156;2023-05-10T12:14:05;12.70;;;5.50;;
16113;SDS011;8161;-33.910;151.156;2023-05-10T12:16:35;13.88;;;5.47;;
16113;SDS011;8161;-33.910;151.156;2023-05-10T12:19:02;16.10;;;6.15;;
16113;SDS011;8161;-33.910;151.156;2023-05-10T12:21:30;16.27;;;5.60;;
16113;SDS011;8161;-33.910;151.156;2023-05-10T12:23:59;15.05;;;5.45;;
16113;SDS011;8161;-33.910;151.156;2023-05-10T12:26:29;13.60;;;5.68;;
16113;SDS011;8161;-33.910;151.156;2023-05-10T12:29:18;13.82;;;6.05;;
16113;SDS011;8161;-33.910;151.156;2023-05-10T12:34:26;14.10;;;5.27;;
16113;SDS011;8161;-33.910;151.156;2023-05-10T12:36:53;12.02;;;4.85;;
16113;SDS011;8161;-33.910;151.156;2023-05-10T12:39:21;14.20;;;5.03;;
16113;SDS011;8161;-33.910;151.156;2023-05-10T12:41:48;12.50;;;4.65;;
16113;SDS011;8161;-33.910;151.156;2023-05-10T12:44:15;10.43;;;3.80;;
16113;SDS011;8161;-33.910;151.156;2023-05-10T12:46:43;9.35;;;4.05;;
16113;SDS011;8161;-33.910;151.156;2023-05-10T12:49:10;10.52;;;4.20;;
16113;SDS011;8161;-33.910;151.156;2023-05-10T12:51:37;13.77;;;4.07;;
16113;SDS011;8161;-33.910;151.156;2023-05-10T12:54:04;10.30;;;4.18;;
16113;SDS011;8161;-33.910;151.156;2023-05-10T12:56:32;9.00;;;3.63;;
16113;SDS011;8161;-33.910;151.156;2023-05-10T12:58:59;10.93;;;3.72;;
16113;SDS011;8161;-33.910;151.156;2023-05-10T13:01:26;8.55;;;4.05;;
16113;SDS011;8161;-33.910;151.156;2023-05-10T13:03:54;13.82;;;3.78;;
16113;SDS011;8161;-33.910;151.156;2023-05-10T13:06:21;11.10;;;4.20;;
16113;SDS011;8161;-33.910;151.156;2023-05-10T13:08:48;10.43;;;4.03;;
16113;SDS011;8161;-33.910;151.156;2023-05-10T13:11:18;10.55;;;3.42;;
16113;SDS011;8161;-33.910;151.156;2023-05-10T13:13:47;10.75;;;4.05;;
16113;SDS011;8161;-33.910;151.156;2023-05-10T13:16:14;8.13;;;3.75;;
16113;SDS011;8161;-33.910;151.156;2023-05-10T13:18:41;14.45;;;3.88;;
16113;SDS011;8161;-33.910;151.156;2023-05-10T13:21:08;8.30;;;3.50;;
16113;SDS011;8161;-33.910;151.156;2023-05-10T13:23:36;10.70;;;3.70;;
16113;SDS011;8161;-33.910;151.156;2023-05-10T13:26:04;11.80;;;3.47;;
16113;SDS011;8161;-33.910;151.156;2023-05-10T13:28:31;10.82;;;3.92;;
16113;SDS011;8161;-33.910;151.156;2023-05-10T13:30:58;12.25;;;4.10;;
16113;SDS011;8161;-33.910;151.156;2023-05-10T13:33:25;7.38;;;3.58;;
16113;SDS011;8161;-33.910;151.156;2023-05-10T13:35:52;8.93;;;3.53;;
16113;SDS011;8161;-33.910;151.156;2023-05-10T13:38:20;10.25;;;3.85;;
16113;SDS011;8161;-33.910;151.156;2023-05-10T13:40:47;9.10;;;3.92;;
16113;SDS011;8161;-33.910;151.156;2023-05-10T13:43:18;11.47;;;4.83;;
16113;SDS011;8161;-33.910;151.156;2023-05-10T13:45:45;9.85;;;4.00;;
16113;SDS011;8161;-33.910;151.156;2023-05-10T13:48:13;13.57;;;4.30;;
16113;SDS011;8161;-33.910;151.156;2023-05-10T13:50:40;9.30;;;3.53;;
16113;SDS011;8161;-33.910;151.156;2023-05-10T13:53:07;9.55;;;3.22;;
16113;SDS011;8161;-33.910;151.156;2023-05-10T13:55:34;9.33;;;3.83;;
16113;SDS011;8161;-33.910;151.156;2023-05-10T13:58:02;8.47;;;3.47;;
16113;SDS011;8161;-33.910;151.156;2023-05-10T14:00:29;8.18;;;2.95;;
16113;SDS011;8161;-33.910;151.156;2023-05-10T14:02:56;9.13;;;3.30;;
16113;SDS011;8161;-33.910;151.156;2023-05-10T14:05:23;7.63;;;3.55;;
16113;SDS011;8161;-33.910;151.156;2023-05-10T14:07:51;8.68;;;3.17;;
16113;SDS011;8161;-33.910;151.156;2023-05-10T14:10:19;7.60;;;3.13;;
16113;SDS011;8161;-33.910;151.156;2023-05-10T14:12:46;7.07;;;3.05;;
16113;SDS011;8161;-33.910;151.156;2023-05-10T14:15:13;7.72;;;3.05;;
16113;SDS011;8161;-33.910;151.156;2023-05-10T14:17:40;8.75;;;3.10;;
16113;SDS011;8161;-33.910;151.156;2023-05-10T14:20:08;8.27;;;3.05;;
16113;SDS011;8161;-33.910;151.156;2023-05-10T14:22:36;7.28;;;2.88;;
16113;SDS011;8161;-33.910;151.156;2023-05-10T14:25:03;6.50;;;3.00;;
16113;SDS011;8161;-33.910;151.156;2023-05-10T14:27:31;6.67;;;3.00;;
16113;SDS011;8161;-33.910;151.156;2023-05-10T14:29:58;9.02;;;3.22;;
16113;SDS011;8161;-33.910;151.156;2023-05-10T14:32:25;8.20;;;3.03;;
16113;SDS011;8161;-33.910;151.156;2023-05-10T14:34:53;7.80;;;3.20;;
16113;SDS011;8161;-33.910;151.156;2023-05-10T14:37:21;8.38;;;3.00;;
16113;SDS011;8161;-33.910;151.156;2023-05-10T14:39:48;6.53;;;2.85;;
16113;SDS011;8161;-33.910;151.156;2023-05-10T14:42:15;10.82;;;3.10;;
16113;SDS011;8161;-33.910;151.156;2023-05-10T14:44:42;7.85;;;2.58;;
16113;SDS011;8161;-33.910;151.156;2023-05-10T14:47:09;7.75;;;2.80;;
16113;SDS011;8161;-33.910;151.156;2023-05-10T14:49:36;6.13;;;2.35;;
16113;SDS011;8161;-33.910;151.156;2023-05-10T14:52:04;7.63;;;2.88;;
16113;SDS011;8161;-33.910;151.156;2023-05-10T14:54:31;5.97;;;2.47;;
16113;SDS011;8161;-33.910;151.156;2023-05-10T14:57:01;10.53;;;2.77;;
16113;SDS011;8161;-33.910;151.156;2023-05-10T14:59:28;6.82;;;2.88;;
16113;SDS011;8161;-33.910;151.156;2023-05-10T15:01:55;7.53;;;2.58;;
16113;SDS011;8161;-33.910;151.156;2023-05-10T15:04:22;5.82;;;2.22;;
16113;SDS011;8161;-33.910;151.156;2023-05-10T15:06:50;6.10;;;2.50;;